This is the latest recevied weather packets stored in our database for station/object YO8SHU-10. If no packets are shown the sender has not sent any weather packets the latest 10 day(s).
| Time | Temp. | Humidity | Pressure | Rain* | Wind** | Luminosity | Snow |
|---|---|---|---|---|---|---|---|
| 1777849225 | 8.33° C | 83% | 1022.8 hPa | - | - | - | - |
| 1777847425 | 8.89° C | 84% | 1023 hPa | - | - | - | - |
| 1777845625 | 10° C | 78% | 1023 hPa | - | - | - | - |
| 1777843825 | 10° C | 82% | 1023.5 hPa | - | - | - | - |
| 1777842025 | 10.56° C | 63% | 1023.5 hPa | - | - | - | - |
| 1777840225 | 11.11° C | 69% | 1023.8 hPa | - | - | - | - |
| 1777838425 | 10.56° C | 67% | 1023.9 hPa | - | - | - | - |
| 1777836625 | 11.11° C | 63% | 1024.2 hPa | - | - | - | - |
| 1777834824 | 11.67° C | 60% | 1024.4 hPa | - | - | - | - |
| 1777833024 | 11.67° C | 54% | 1024.4 hPa | - | - | - | - |
| 1777831224 | 12.78° C | 48% | 1024.2 hPa | - | - | - | - |
| 1777829424 | 13.89° C | 42% | 1024.1 hPa | - | - | - | - |
| 1777827624 | 14.44° C | 38% | 1024.1 hPa | - | - | - | - |
| 1777825824 | 15.56° C | 39% | 1024 hPa | - | - | - | - |
| 1777824024 | 15.56° C | 39% | 1024.1 hPa | - | - | - | - |
| 1777822224 | 16.11° C | 39% | 1024.4 hPa | - | - | - | - |
| 1777820423 | 18.33° C | 33% | 1024.6 hPa | - | - | - | - |
| 1777818623 | 26.11° C | 26% | 1024.8 hPa | - | - | - | - |
| 1777816823 | 21.11° C | 34% | 1025.3 hPa | - | - | - | - |
| 1777815023 | 19.44° C | 38% | 1025.7 hPa | - | - | - | - |
| 1777813223 | 18.89° C | 39% | 1026.1 hPa | - | - | - | - |
| 1777811423 | 18.89° C | 36% | 1026.3 hPa | - | - | - | - |
| 1777809623 | 18.33° C | 36% | 1026.6 hPa | - | - | - | - |
| 1777807823 | 17.78° C | 38% | 1027.2 hPa | - | - | - | - |
| 1777806023 | 17.22° C | 40% | 1027.5 hPa | - | - | - | - |
* Rain since midnight (hover to see other rain measurements)
** Current wind speed in m/s (hover to see current wind gust speed)